createdAt,value
2019-06-01T00:00:44.609Z,80.39
2019-06-01T00:01:44.761Z,80.39
2019-06-01T00:02:51.216Z,80.43
2019-06-01T00:03:46.468Z,80.49
2019-06-01T00:04:45.262Z,80.63
2019-06-01T00:05:44.639Z,80.63
2019-06-01T00:06:44.864Z,80.63
2019-06-01T00:07:44.932Z,80.73
2019-06-01T00:08:45.075Z,80.73
2019-06-01T00:09:45.171Z,80.73
2019-06-01T00:10:45.190Z,80.73
2019-06-01T00:11:45.564Z,80.73
2019-06-01T00:12:45.335Z,80.83
2019-06-01T00:13:45.597Z,80.83
2019-06-01T00:14:45.655Z,80.93
2019-06-01T00:15:44.451Z,80.93
2019-06-01T00:16:44.410Z,80.83
2019-06-01T00:17:44.418Z,81.04
2019-06-01T00:18:44.499Z,81.13
2019-06-01T00:19:44.398Z,80.93
2019-06-01T00:20:44.420Z,80.63
2019-06-01T00:21:45.431Z,80.83
2019-06-01T00:22:45.473Z,80.93
2019-06-01T00:23:44.471Z,80.83
2019-06-01T00:24:44.349Z,80.83
2019-06-01T00:25:44.627Z,80.83
2019-06-01T00:26:45.747Z,80.93
2019-06-01T00:27:44.720Z,80.93
2019-06-01T00:28:45.688Z,81.07
2019-06-01T00:29:44.715Z,81.07
2019-06-01T00:30:44.243Z,81.07
2019-06-01T00:31:45.289Z,80.97
2019-06-01T00:32:45.189Z,80.97
2019-06-01T00:33:45.461Z,80.87
2019-06-01T00:34:44.239Z,80.97
2019-06-01T00:35:45.322Z,81.27
2019-06-01T00:36:45.518Z,81.27
2019-06-01T00:37:45.534Z,81.07
2019-06-01T00:38:44.219Z,80.97
2019-06-01T00:39:44.211Z,81.07
2019-06-01T00:40:44.170Z,81.38
2019-06-01T00:41:44.160Z,81.38
2019-06-01T00:42:44.166Z,81.18
2019-06-01T00:43:44.234Z,81.07
2019-06-01T00:44:44.332Z,81.18
2019-06-01T00:45:44.476Z,81.27
2019-06-01T00:46:44.475Z,81.48
2019-06-01T00:47:44.754Z,81.38
2019-06-01T00:48:44.054Z,81.31
2019-06-01T00:49:44.695Z,81.41
2019-06-01T00:50:44.902Z,81.41
2019-06-01T00:51:45.046Z,81.62
2019-06-01T00:52:45.068Z,81.72
2019-06-01T00:53:45.250Z,81.92
2019-06-01T00:54:45.178Z,81.92
2019-06-01T00:55:45.860Z,82.03
2019-06-01T00:56:45.469Z,82.03
2019-06-01T00:57:43.993Z,81.92
2019-06-01T00:58:43.931Z,82.12
2019-06-01T00:59:43.963Z,82.23
2019-06-01T01:00:45.687Z,82.33
2019-06-01T01:01:43.971Z,82.23
2019-06-01T01:02:44.056Z,81.82
2019-06-01T01:03:44.029Z,81.72
2019-06-01T01:04:44.306Z,81.82
2019-06-01T01:05:44.616Z,81.92
2019-06-01T01:06:44.433Z,82.03
2019-06-01T01:07:44.525Z,82.06
2019-06-01T01:08:44.786Z,81.96
2019-06-01T01:09:46.807Z,81.76
2019-06-01T01:10:44.824Z,81.96
2019-06-01T01:11:44.829Z,82.17
2019-06-01T01:12:44.930Z,82.26
2019-06-01T01:13:45.552Z,82.26
2019-06-01T01:14:45.069Z,82.17
2019-06-01T01:15:43.776Z,82.47
2019-06-01T01:16:43.781Z,82.47
2019-06-01T01:17:43.773Z,82.57
2019-06-01T01:18:43.754Z,82.57
2019-06-01T01:19:43.743Z,82.57
2019-06-01T01:20:43.747Z,82.47
2019-06-01T01:21:43.804Z,82.71
2019-06-01T01:22:43.697Z,82.71
2019-06-01T01:23:43.704Z,82.81
2019-06-01T01:24:43.693Z,82.92
2019-06-01T01:25:43.804Z,82.81
2019-06-01T01:26:43.673Z,82.71
2019-06-01T01:27:43.655Z,82.92
2019-06-01T01:28:43.656Z,83.01
2019-06-01T01:29:43.656Z,83.12
2019-06-01T01:30:58.007Z,83.22
2019-06-01T01:31:44.633Z,83.12
2019-06-01T01:32:43.624Z,83.12
2019-06-01T01:33:43.598Z,83.22
2019-06-01T01:34:43.573Z,83.12
2019-06-01T01:35:43.582Z,83.22
2019-06-01T01:36:43.565Z,83.42
2019-06-01T01:37:43.687Z,83.42
2019-06-01T01:38:43.545Z,83.53
2019-06-01T01:39:43.526Z,83.56
2019-06-01T01:40:43.523Z,83.56
2019-06-01T01:41:43.624Z,83.67
2019-06-01T01:42:43.496Z,83.76
2019-06-01T01:43:43.486Z,83.87
2019-06-01T01:44:43.489Z,83.76
2019-06-01T01:45:43.424Z,83.67
2019-06-01T01:46:43.550Z,83.76
2019-06-01T01:47:43.452Z,83.76
2019-06-01T01:48:43.386Z,83.76
2019-06-01T01:49:43.416Z,83.76
2019-06-01T01:50:43.416Z,83.67
2019-06-01T01:51:43.396Z,83.76
2019-06-01T01:52:43.521Z,83.67
2019-06-01T01:53:43.391Z,83.67
2019-06-01T01:54:43.370Z,83.87
2019-06-01T01:55:43.362Z,83.87
2019-06-01T01:56:43.343Z,83.76
2019-06-01T01:57:43.416Z,83.76
2019-06-01T01:58:43.316Z,83.67
2019-06-01T01:59:43.319Z,83.56
2019-06-01T02:00:43.257Z,83.56
2019-06-01T02:01:43.291Z,83.76
2019-06-01T02:02:43.372Z,83.76
2019-06-01T02:03:43.270Z,83.76
2019-06-01T02:04:43.257Z,83.87
2019-06-01T02:05:43.273Z,83.76
2019-06-01T02:06:43.238Z,83.76
2019-06-01T02:07:43.348Z,83.91
2019-06-01T02:08:43.220Z,84.01
2019-06-01T02:09:43.210Z,84.01
2019-06-01T02:10:43.189Z,83.91
2019-06-01T02:11:43.195Z,84.01
2019-06-01T02:12:43.173Z,84.01
2019-06-01T02:13:43.158Z,84.11
2019-06-01T02:14:43.111Z,84.01
2019-06-01T02:15:43.098Z,83.81
2019-06-01T02:16:43.127Z,84.01
2019-06-01T02:17:43.127Z,84.11
2019-06-01T02:18:43.178Z,84.21
2019-06-01T02:19:43.088Z,84.21
2019-06-01T02:20:43.078Z,84.31
2019-06-01T02:21:43.068Z,84.31
2019-06-01T02:22:43.070Z,84.42
2019-06-01T02:23:43.127Z,84.72
2019-06-01T02:24:43.039Z,84.72
2019-06-01T02:25:43.032Z,84.62
2019-06-01T02:26:43.019Z,84.52
2019-06-01T02:27:43.002Z,84.52
2019-06-01T02:28:42.959Z,84.52
2019-06-01T02:29:42.978Z,84.72
2019-06-01T02:30:43.043Z,84.72
2019-06-01T02:31:43.094Z,84.82
2019-06-01T02:32:42.960Z,84.72
2019-06-01T02:33:43.069Z,84.62
2019-06-01T02:34:42.929Z,84.56
2019-06-01T02:35:42.919Z,84.56
2019-06-01T02:36:42.901Z,84.66
2019-06-01T02:37:42.890Z,84.76
2019-06-01T02:38:43.005Z,84.97
2019-06-01T02:39:42.870Z,85.06
2019-06-01T02:40:42.850Z,85.17
2019-06-01T02:41:42.851Z,85.17
2019-06-01T02:42:42.840Z,85.17
2019-06-01T02:43:42.832Z,85.27
2019-06-01T02:44:42.784Z,85.27
2019-06-01T02:45:42.814Z,85.17
2019-06-01T02:46:42.798Z,85.17
2019-06-01T02:47:42.733Z,85.17
2019-06-01T02:48:42.771Z,85.27
2019-06-01T02:49:42.841Z,85.47
2019-06-01T02:50:42.751Z,85.58
2019-06-01T02:51:42.731Z,85.47
2019-06-01T02:52:42.756Z,85.37
2019-06-01T02:53:42.721Z,85.37
2019-06-01T02:54:42.742Z,85.31
2019-06-01T02:55:42.700Z,85.41
2019-06-01T02:56:42.649Z,85.41
2019-06-01T02:57:42.671Z,85.41
2019-06-01T02:58:42.718Z,85.21
2019-06-01T02:59:42.754Z,85.21
2019-06-01T03:00:42.601Z,85.21
2019-06-01T03:01:55.922Z,85.21
2019-06-01T03:02:43.621Z,85.11
2019-06-01T03:03:42.615Z,85.31
2019-06-01T03:04:42.560Z,85.31
2019-06-01T03:05:42.702Z,85.31
2019-06-01T03:06:42.587Z,85.21
2019-06-01T03:07:42.535Z,85.21
2019-06-01T03:08:42.564Z,85.41
2019-06-01T03:09:42.546Z,85.51
2019-06-01T03:10:42.653Z,85.61
2019-06-01T03:11:42.533Z,85.61
2019-06-01T03:12:42.518Z,85.51
2019-06-01T03:13:42.472Z,85.61
2019-06-01T03:14:42.482Z,85.51
2019-06-01T03:15:42.490Z,85.55
2019-06-01T03:16:42.482Z,85.75
2019-06-01T03:17:42.452Z,85.86
2019-06-01T03:18:42.513Z,85.86
2019-06-01T03:19:42.433Z,85.86
2019-06-01T03:20:42.382Z,85.96
2019-06-01T03:21:42.413Z,85.96
2019-06-01T03:22:42.402Z,86.06
2019-06-01T03:23:42.473Z,86.06
2019-06-01T03:24:42.462Z,85.96
2019-06-01T03:25:42.376Z,86.06
2019-06-01T03:26:42.369Z,85.96
2019-06-01T03:27:42.343Z,86.06
2019-06-01T03:28:42.342Z,85.96
2019-06-01T03:29:42.444Z,85.86
2019-06-01T03:30:45.482Z,85.72
2019-06-01T03:31:42.434Z,85.92
2019-06-01T03:32:42.297Z,86.02
2019-06-01T03:33:42.274Z,85.82
2019-06-01T03:34:42.408Z,85.72
2019-06-01T03:35:42.263Z,85.72
2019-06-01T03:36:42.323Z,85.72
2019-06-01T03:37:42.248Z,85.51
2019-06-01T03:38:42.237Z,85.61
2019-06-01T03:39:42.187Z,85.82
2019-06-01T03:40:42.154Z,85.72
2019-06-01T03:41:42.285Z,85.72
2019-06-01T03:42:42.204Z,85.72
2019-06-01T03:43:42.174Z,85.82
2019-06-01T03:44:42.169Z,85.92
2019-06-01T03:45:42.145Z,86.02
2019-06-01T03:46:42.218Z,86.02
2019-06-01T03:47:42.127Z,86.13
2019-06-01T03:48:42.121Z,86.13
2019-06-01T03:49:42.134Z,86.13
2019-06-01T03:50:42.095Z,86.33
2019-06-01T03:51:42.176Z,86.43
2019-06-01T03:52:42.064Z,86.43
2019-06-01T03:53:42.054Z,86.43
2019-06-01T03:54:42.044Z,86.53
2019-06-01T03:55:42.115Z,86.53
2019-06-01T03:56:42.030Z,86.63
2019-06-01T03:57:42.014Z,86.63
2019-06-01T03:58:42.006Z,86.63
2019-06-01T03:59:41.995Z,86.53
2019-06-01T04:00:41.999Z,86.53
2019-06-01T04:01:42.107Z,86.53
2019-06-01T04:02:41.969Z,86.43
2019-06-01T04:03:41.955Z,86.53
2019-06-01T04:04:41.935Z,86.63
2019-06-01T04:05:41.939Z,86.43
2019-06-01T04:06:41.907Z,86.43
2019-06-01T04:07:41.858Z,86.43
2019-06-01T04:08:41.966Z,86.43
2019-06-01T04:09:41.886Z,86.53
2019-06-01T04:10:41.880Z,86.63
2019-06-01T04:11:41.872Z,86.63
2019-06-01T04:12:41.946Z,86.63
2019-06-01T04:13:41.849Z,86.63
2019-06-01T04:14:41.826Z,86.74
2019-06-01T04:15:41.822Z,86.83
2019-06-01T04:16:41.910Z,86.83
2019-06-01T04:17:41.796Z,86.63
2019-06-01T04:18:41.883Z,86.69
2019-06-01T04:19:41.829Z,86.80
2019-06-01T04:20:41.744Z,86.59
2019-06-01T04:21:41.758Z,86.69
2019-06-01T04:22:41.817Z,86.69
2019-06-01T04:23:41.809Z,86.69
2019-06-01T04:24:41.730Z,86.59
2019-06-01T04:25:41.706Z,86.59
2019-06-01T04:26:41.705Z,86.65
2019-06-01T04:27:41.788Z,86.55
2019-06-01T04:28:41.680Z,86.55
2019-06-01T04:29:41.749Z,86.65
2019-06-01T04:30:41.657Z,86.65
2019-06-01T04:31:41.638Z,86.65
2019-06-01T04:32:49.884Z,86.55
2019-06-01T04:33:42.726Z,86.45
2019-06-01T04:34:41.622Z,86.41
2019-06-01T04:35:41.679Z,86.51
2019-06-01T04:36:41.598Z,86.51
2019-06-01T04:37:41.593Z,86.51
2019-06-01T04:38:41.574Z,86.61
2019-06-01T04:39:41.557Z,86.61
2019-06-01T04:40:41.568Z,86.71
2019-06-01T04:41:41.645Z,86.77
2019-06-01T04:42:41.530Z,86.98
2019-06-01T04:43:41.500Z,86.98
2019-06-01T04:44:41.626Z,86.98
2019-06-01T04:45:41.470Z,87.08
2019-06-01T04:46:41.478Z,87.04
2019-06-01T04:47:41.485Z,87.04
2019-06-01T04:48:41.588Z,87.04
2019-06-01T04:49:41.429Z,86.94
2019-06-01T04:50:41.429Z,87.04
2019-06-01T04:51:41.428Z,86.94
2019-06-01T04:52:41.419Z,86.94
2019-06-01T04:53:41.489Z,86.83
2019-06-01T04:54:41.399Z,86.80
2019-06-01T04:55:41.509Z,86.69
2019-06-01T04:56:41.332Z,86.69
2019-06-01T04:57:41.361Z,86.80
2019-06-01T04:58:41.362Z,86.69
2019-06-01T04:59:41.340Z,86.69
2019-06-01T05:00:41.341Z,86.59
2019-06-01T05:01:41.321Z,86.39
2019-06-01T05:02:41.310Z,86.39
2019-06-01T05:03:41.301Z,86.39
2019-06-01T05:04:43.531Z,86.29
2019-06-01T05:05:41.400Z,86.25
2019-06-01T05:06:41.382Z,86.15
2019-06-01T05:07:41.251Z,86.15
2019-06-01T05:08:41.242Z,85.94
2019-06-01T05:09:41.232Z,85.64
2019-06-01T05:10:41.226Z,85.74
2019-06-01T05:11:41.312Z,85.53
2019-06-01T05:12:41.162Z,85.44
2019-06-01T05:13:41.192Z,85.30
2019-06-01T05:14:41.196Z,85.39
2019-06-01T05:15:41.172Z,84.99
2019-06-01T05:16:41.233Z,84.89
2019-06-01T05:17:41.153Z,84.78
2019-06-01T05:18:41.137Z,84.58
2019-06-01T05:19:41.133Z,84.75
2019-06-01T05:20:41.119Z,84.14
2019-06-01T05:21:41.152Z,84.14
2019-06-01T05:22:41.093Z,84.04
2019-06-01T05:23:41.163Z,83.94
2019-06-01T05:24:41.039Z,83.43
2019-06-01T05:25:41.066Z,83.23
2019-06-01T05:26:41.163Z,82.92
2019-06-01T05:27:41.126Z,83.23
2019-06-01T05:28:41.167Z,83.29
2019-06-01T05:29:41.024Z,83.39
2019-06-01T05:30:41.004Z,83.29
2019-06-01T05:31:40.994Z,83.18
2019-06-01T05:32:40.945Z,83.09
2019-06-01T05:33:40.975Z,83.15
2019-06-01T05:34:41.095Z,82.64
2019-06-01T05:35:40.955Z,82.44
2019-06-01T05:36:40.969Z,82.14
2019-06-01T05:37:41.048Z,82.10
2019-06-01T05:38:41.055Z,81.99
2019-06-01T05:39:40.906Z,81.69
2019-06-01T05:40:40.896Z,81.35
2019-06-01T05:41:40.846Z,81.11
2019-06-01T05:42:41.020Z,79.75
2019-06-01T05:43:40.866Z,79.11
2019-06-01T05:44:40.855Z,78.06
2019-06-01T05:45:40.846Z,77.19
2019-06-01T05:46:40.847Z,75.30
2019-06-01T05:47:40.819Z,73.14
2019-06-01T05:48:40.890Z,72.31
2019-06-01T05:49:40.796Z,72.14
2019-06-01T05:50:40.787Z,72.44
2019-06-01T05:51:40.777Z,71.60
2019-06-01T05:52:40.857Z,71.44
2019-06-01T05:53:40.888Z,71.70
2019-06-01T05:54:40.707Z,72.14
2019-06-01T05:55:40.737Z,71.84
2019-06-01T05:56:40.718Z,72.14
2019-06-01T05:57:40.668Z,72.14
2019-06-01T05:58:40.778Z,72.54
2019-06-01T05:59:40.649Z,72.24
2019-06-01T06:00:40.682Z,73.08
2019-06-01T06:01:40.679Z,73.79
2019-06-01T06:02:40.661Z,74.29
2019-06-01T06:03:40.933Z,73.48
2019-06-01T06:04:40.638Z,73.14
2019-06-01T06:05:40.629Z,71.53
2019-06-01T06:06:40.582Z,70.73
2019-06-01T06:07:47.129Z,70.90
2019-06-01T06:08:40.729Z,71.20
2019-06-01T06:09:40.611Z,70.86
2019-06-01T06:10:40.570Z,70.86
2019-06-01T06:11:40.560Z,70.32
2019-06-01T06:12:40.552Z,69.62
2019-06-01T06:13:40.610Z,69.42
2019-06-01T06:14:40.539Z,69.69
2019-06-01T06:15:40.521Z,69.65
2019-06-01T06:16:40.471Z,67.31
2019-06-01T06:17:40.490Z,66.98
2019-06-01T06:18:40.497Z,67.05
2019-06-01T06:19:40.611Z,66.52
2019-06-01T06:20:40.461Z,65.35
2019-06-01T06:21:40.451Z,64.42
2019-06-01T06:22:41.248Z,63.48
2019-06-01T06:23:40.535Z,62.35
2019-06-01T06:24:40.546Z,62.95
2019-06-01T06:25:41.482Z,62.32
2019-06-01T06:26:40.404Z,60.89
2019-06-01T06:27:40.396Z,60.27
2019-06-01T06:28:40.373Z,60.66
2019-06-01T06:29:40.333Z,61.02
2019-06-01T06:30:40.314Z,61.52
2019-06-01T06:31:40.344Z,61.65
2019-06-01T06:32:40.324Z,62.35
2019-06-01T06:33:55.155Z,62.35
2019-06-01T06:34:41.385Z,61.59
2019-06-01T06:35:40.306Z,61.07
2019-06-01T06:36:40.298Z,60.44
2019-06-01T06:37:42.355Z,59.58
2019-06-01T06:38:40.275Z,58.53
2019-06-01T06:39:40.325Z,57.57
2019-06-01T06:40:40.246Z,55.85
2019-06-01T06:41:40.236Z,56.02
2019-06-01T06:42:40.223Z,54.93
2019-06-01T06:43:40.215Z,54.60
2019-06-01T06:44:40.277Z,54.08
2019-06-01T06:45:40.274Z,53.96
2019-06-01T06:46:40.186Z,52.94
2019-06-01T06:47:40.167Z,52.94
2019-06-01T06:48:40.169Z,52.94
2019-06-01T06:49:40.157Z,53.23
2019-06-01T06:50:40.170Z,52.94
2019-06-01T06:51:40.128Z,52.22
2019-06-01T06:52:40.120Z,51.92
2019-06-01T06:53:40.111Z,51.72
2019-06-01T06:54:40.089Z,51.82
2019-06-01T06:55:40.219Z,51.82
2019-06-01T06:56:40.179Z,52.12
2019-06-01T06:57:40.142Z,52.09
2019-06-01T06:58:40.072Z,52.00
2019-06-01T06:59:40.053Z,51.18
2019-06-01T07:00:40.003Z,52.07
2019-06-01T07:01:40.021Z,51.57
2019-06-01T07:02:39.989Z,51.05
2019-06-01T07:03:39.961Z,50.65
2019-06-01T07:04:39.998Z,50.06
2019-06-01T07:05:39.994Z,50.06
2019-06-01T07:06:40.123Z,49.57
2019-06-01T07:07:39.912Z,50.26
2019-06-01T07:08:39.942Z,50.36
2019-06-01T07:09:39.949Z,50.04
2019-06-01T07:10:39.923Z,50.13
2019-06-01T07:11:40.049Z,50.63
2019-06-01T07:12:39.905Z,49.57
2019-06-01T07:13:39.906Z,49.86
2019-06-01T07:14:39.885Z,49.46
2019-06-01T07:15:39.883Z,49.88
2019-06-01T07:16:39.979Z,50.68
2019-06-01T07:17:39.865Z,49.88
2019-06-01T07:18:39.844Z,49.88
2019-06-01T07:19:39.939Z,50.38
2019-06-01T07:20:39.825Z,50.58
2019-06-01T07:21:39.910Z,50.21
2019-06-01T07:22:39.784Z,50.73
2019-06-01T07:23:39.933Z,51.12
2019-06-01T07:24:39.789Z,50.81
2019-06-01T07:25:39.762Z,50.90
2019-06-01T07:26:39.890Z,50.09
2019-06-01T07:27:39.743Z,50.21
2019-06-01T07:28:39.728Z,50.01
2019-06-01T07:29:39.727Z,50.40
2019-06-01T07:30:49.617Z,50.33
2019-06-01T07:31:40.779Z,50.43
2019-06-01T07:32:39.691Z,50.93
2019-06-01T07:33:39.678Z,50.70
2019-06-01T07:34:42.520Z,50.21
2019-06-01T07:35:39.659Z,50.90
2019-06-01T07:36:39.650Z,50.40
2019-06-01T07:37:39.734Z,50.21
2019-06-01T07:38:39.642Z,50.21
2019-06-01T07:39:39.614Z,50.18
2019-06-01T07:40:39.682Z,49.76
2019-06-01T07:41:39.593Z,50.38
2019-06-01T07:42:39.662Z,50.38
2019-06-01T07:43:39.649Z,50.09
2019-06-01T07:44:39.559Z,50.26
2019-06-01T07:45:39.515Z,49.96
2019-06-01T07:46:39.531Z,50.06
2019-06-01T07:47:39.615Z,49.94
2019-06-01T07:48:39.513Z,49.84
2019-06-01T07:49:39.507Z,49.42
2019-06-01T07:50:39.483Z,49.12
2019-06-01T07:51:39.574Z,48.53
2019-06-01T07:52:39.435Z,49.91
2019-06-01T07:53:39.479Z,48.35
2019-06-01T07:54:39.454Z,48.85
2019-06-01T07:55:39.448Z,49.15
2019-06-01T07:56:39.505Z,48.94
2019-06-01T07:57:43.201Z,48.97
2019-06-01T07:58:39.407Z,48.97
2019-06-01T07:59:39.357Z,49.19
2019-06-01T08:00:39.476Z,49.99
2019-06-01T08:01:39.392Z,50.18
2019-06-01T08:02:39.488Z,49.88
2019-06-01T08:03:39.360Z,49.59
2019-06-01T08:04:52.583Z,49.69
2019-06-01T08:05:40.339Z,50.16
2019-06-01T08:06:45.155Z,50.16
2019-06-01T08:07:40.440Z,49.15
2019-06-01T08:08:39.309Z,48.45
2019-06-01T08:09:39.298Z,48.57
2019-06-01T08:10:39.419Z,48.90
2019-06-01T08:11:39.279Z,49.61
2019-06-01T08:12:39.220Z,49.34
2019-06-01T08:13:39.343Z,50.03
2019-06-01T08:14:39.201Z,50.13
2019-06-01T08:15:39.245Z,50.35
2019-06-01T08:16:39.182Z,50.65
2019-06-01T08:17:39.205Z,50.35
2019-06-01T08:18:39.239Z,50.16
2019-06-01T08:19:39.322Z,50.16
2019-06-01T08:20:39.302Z,50.43
2019-06-01T08:21:39.172Z,50.03
2019-06-01T08:22:39.165Z,50.23
2019-06-01T08:23:39.154Z,50.11
2019-06-01T08:24:39.244Z,50.01
2019-06-01T08:25:39.144Z,49.91
2019-06-01T08:26:39.197Z,49.61
2019-06-01T08:27:39.105Z,49.63
2019-06-01T08:28:39.046Z,50.53
2019-06-01T08:29:39.142Z,51.52
2019-06-01T08:30:39.080Z,51.23
2019-06-01T08:31:39.177Z,49.71
2019-06-01T08:32:39.067Z,49.91
2019-06-01T08:33:39.037Z,50.01
2019-06-01T08:34:39.027Z,49.91
2019-06-01T08:35:39.018Z,50.03
2019-06-01T08:36:39.098Z,50.16
2019-06-01T08:37:39.008Z,50.75
2019-06-01T08:38:38.998Z,50.95
2019-06-01T08:39:38.988Z,50.75
2019-06-01T08:40:38.969Z,51.84
2019-06-01T08:41:39.089Z,51.84
2019-06-01T08:42:38.953Z,50.83
2019-06-01T08:43:38.949Z,50.70
2019-06-01T08:44:38.942Z,50.11
2019-06-01T08:45:38.923Z,50.28
2019-06-01T08:46:39.041Z,49.79
2019-06-01T08:47:38.899Z,49.46
2019-06-01T08:48:38.893Z,49.17
2019-06-01T08:49:38.875Z,48.85
2019-06-01T08:50:38.882Z,48.45
2019-06-01T08:51:38.825Z,48.25
2019-06-01T08:52:38.964Z,48.08
2019-06-01T08:53:38.846Z,48.50
2019-06-01T08:54:38.837Z,48.69
2019-06-01T08:55:38.813Z,48.60
2019-06-01T08:56:38.903Z,49.27
2019-06-01T08:57:38.798Z,48.87
2019-06-01T08:58:38.787Z,49.39
2019-06-01T08:59:38.784Z,48.69
2019-06-01T09:00:38.766Z,49.81
2019-06-01T09:01:39.109Z,49.91
2019-06-01T09:02:38.816Z,49.51
2019-06-01T09:03:45.449Z,50.01
2019-06-01T09:04:39.728Z,49.69
2019-06-01T09:05:38.708Z,49.49
2019-06-01T09:06:38.709Z,48.40
2019-06-01T09:07:39.089Z,48.69
2019-06-01T09:08:38.680Z,48.67
2019-06-01T09:09:38.629Z,47.98
2019-06-01T09:10:38.630Z,48.47
2019-06-01T09:11:38.651Z,48.67
2019-06-01T09:12:38.639Z,48.85
2019-06-01T09:13:38.752Z,47.86
2019-06-01T09:14:38.635Z,47.86
2019-06-01T09:15:38.612Z,47.75
2019-06-01T09:16:38.729Z,48.38
2019-06-01T09:17:38.590Z,48.40
2019-06-01T09:18:38.665Z,48.92
2019-06-01T09:19:38.602Z,49.91
2019-06-01T09:20:38.979Z,50.53
2019-06-01T09:21:38.664Z,50.33
2019-06-01T09:22:38.622Z,49.74
2019-06-01T09:23:38.666Z,50.23
2019-06-01T09:24:38.536Z,50.13
2019-06-01T09:25:38.514Z,50.73
2019-06-01T09:26:38.509Z,50.03
2019-06-01T09:27:38.498Z,50.23
2019-06-01T09:28:38.635Z,50.03
2019-06-01T09:29:38.557Z,50.03
2019-06-01T09:30:38.477Z,50.53
2019-06-01T09:31:38.446Z,49.96
2019-06-01T09:32:38.387Z,50.75
2019-06-01T09:33:38.431Z,51.45
2019-06-01T09:34:38.552Z,50.45
2019-06-01T09:35:52.751Z,50.23
2019-06-01T09:36:39.403Z,49.74
2019-06-01T09:37:38.390Z,50.33
2019-06-01T09:38:38.379Z,50.33
2019-06-01T09:39:38.502Z,50.01
2019-06-01T09:40:38.362Z,49.41
2019-06-01T09:41:38.304Z,49.49
2019-06-01T09:42:38.330Z,49.57
2019-06-01T09:43:38.293Z,48.94
2019-06-01T09:44:38.311Z,48.53
2019-06-01T09:45:38.438Z,48.53
2019-06-01T09:46:38.292Z,48.82
2019-06-01T09:47:38.242Z,48.03
2019-06-01T09:48:38.279Z,47.93
2019-06-01T09:49:38.392Z,48.33
2019-06-01T09:50:38.257Z,49.22
2019-06-01T09:51:38.245Z,48.43
2019-06-01T09:52:38.257Z,47.86
2019-06-01T09:53:38.225Z,48.18
2019-06-01T09:54:38.217Z,49.17
2019-06-01T09:55:38.485Z,49.66
2019-06-01T09:56:39.802Z,49.49
2019-06-01T09:57:38.440Z,49.37
2019-06-01T09:58:38.864Z,49.27
2019-06-01T09:59:38.244Z,49.15
2019-06-01T10:00:42.082Z,49.44
2019-06-01T10:01:39.140Z,49.44
2019-06-01T10:02:38.374Z,49.74
2019-06-01T10:03:38.562Z,49.81
2019-06-01T10:04:38.829Z,48.60
2019-06-01T10:05:38.578Z,48.40
2019-06-01T10:06:38.717Z,47.74
2019-06-01T10:07:39.320Z,47.93
2019-06-01T10:08:38.223Z,48.13
2019-06-01T10:09:38.080Z,48.63
2019-06-01T10:10:38.148Z,48.43
2019-06-01T10:11:38.198Z,48.53
2019-06-01T10:12:38.279Z,48.43
2019-06-01T10:13:38.403Z,47.71
2019-06-01T10:14:39.337Z,47.78
2019-06-01T10:15:38.543Z,47.19
2019-06-01T10:16:38.908Z,47.09
2019-06-01T10:17:39.077Z,47.27
2019-06-01T10:18:39.026Z,46.97
2019-06-01T10:19:38.901Z,46.55
2019-06-01T10:20:39.105Z,46.45
2019-06-01T10:21:38.092Z,46.55
2019-06-01T10:22:39.378Z,47.05
2019-06-01T10:23:38.453Z,47.25
2019-06-01T10:24:39.189Z,46.55
2019-06-01T10:25:38.548Z,45.47
2019-06-01T10:26:37.896Z,45.49
2019-06-01T10:27:38.679Z,45.89
2019-06-01T10:28:37.969Z,46.78
2019-06-01T10:29:39.934Z,46.48
2019-06-01T10:30:37.955Z,46.97
2019-06-01T10:31:41.021Z,46.55
2019-06-01T10:32:38.179Z,47.05
2019-06-01T10:33:38.940Z,46.23
2019-06-01T10:34:37.824Z,45.54
2019-06-01T10:35:38.952Z,45.64
2019-06-01T10:36:38.084Z,46.01
2019-06-01T10:37:37.899Z,45.64
2019-06-01T10:38:37.850Z,45.35
2019-06-01T10:39:37.771Z,45.27
2019-06-01T10:40:37.760Z,45.76
2019-06-01T10:41:37.743Z,46.36
2019-06-01T10:42:38.082Z,46.66
2019-06-01T10:43:37.783Z,47.05
2019-06-01T10:44:41.499Z,46.06
2019-06-01T10:45:39.867Z,45.76
2019-06-01T10:46:38.038Z,46.26
2019-06-01T10:47:38.225Z,46.66
2019-06-01T10:48:38.078Z,46.93
2019-06-01T10:49:38.027Z,46.23
2019-06-01T10:50:38.498Z,45.15
2019-06-01T10:51:38.261Z,45.25
2019-06-01T10:52:38.386Z,45.94
2019-06-01T10:53:38.205Z,45.47
2019-06-01T10:54:38.327Z,46.75
2019-06-01T10:55:38.416Z,46.16
2019-06-01T10:56:38.500Z,45.37
2019-06-01T10:57:38.505Z,45.76
2019-06-01T10:58:54.771Z,46.58
2019-06-01T10:59:38.702Z,47.00
2019-06-01T11:00:45.477Z,48.18
2019-06-01T11:01:38.889Z,48.28
2019-06-01T11:02:38.838Z,48.06
2019-06-01T11:03:38.672Z,47.74
2019-06-01T11:04:38.845Z,47.05
2019-06-01T11:05:38.758Z,46.66
2019-06-01T11:06:43.333Z,46.36
2019-06-01T11:07:39.031Z,46.63
2019-06-01T11:08:38.926Z,46.63
2019-06-01T11:09:37.550Z,47.50
2019-06-01T11:10:37.470Z,46.51
2019-06-01T11:11:37.411Z,45.82
2019-06-01T11:12:37.440Z,46.91
2019-06-01T11:13:37.432Z,46.22
2019-06-01T11:14:37.531Z,46.11
2019-06-01T11:15:37.544Z,45.42
2019-06-01T11:16:37.416Z,44.73
2019-06-01T11:17:37.413Z,44.24
2019-06-01T11:18:37.540Z,43.65
2019-06-01T11:19:37.497Z,44.83
2019-06-01T11:20:37.376Z,45.62
2019-06-01T11:21:37.498Z,44.32
2019-06-01T11:22:37.576Z,44.83
2019-06-01T11:23:37.550Z,45.96
2019-06-01T11:24:37.504Z,46.48
2019-06-01T11:25:37.606Z,46.08
2019-06-01T11:26:37.653Z,45.49
2019-06-01T11:27:37.772Z,45.67
2019-06-01T11:28:38.202Z,46.44
2019-06-01T11:29:42.956Z,45.13
2019-06-01T11:30:38.268Z,44.61
2019-06-01T11:31:38.312Z,43.90
2019-06-01T11:32:39.536Z,44.00
2019-06-01T11:33:38.186Z,43.60
2019-06-01T11:34:38.409Z,43.70
2019-06-01T11:35:37.275Z,44.10
2019-06-01T11:36:56.842Z,44.81
2019-06-01T11:37:38.522Z,43.92
2019-06-01T11:38:38.341Z,43.33
2019-06-01T11:39:38.407Z,44.75
2019-06-01T11:40:38.514Z,44.97
2019-06-01T11:41:38.277Z,44.87
2019-06-01T11:42:37.211Z,45.45
2019-06-01T11:43:38.516Z,44.85
2019-06-01T11:44:37.132Z,44.65
2019-06-01T11:45:37.122Z,44.97
2019-06-01T11:46:37.197Z,45.61
2019-06-01T11:47:37.123Z,47.39
2019-06-01T11:48:37.255Z,47.69
2019-06-01T11:49:37.213Z,46.58
2019-06-01T11:50:37.094Z,45.76
2019-06-01T11:51:37.144Z,46.16
2019-06-01T11:52:37.203Z,47.03
2019-06-01T11:53:37.422Z,45.84
2019-06-01T11:54:37.111Z,45.84
2019-06-01T11:55:37.101Z,45.52
2019-06-01T11:56:37.267Z,45.50
2019-06-01T11:57:37.495Z,45.20
2019-06-01T11:58:37.234Z,46.26
2019-06-01T11:59:37.276Z,45.08
2019-06-01T12:00:37.563Z,43.29
2019-06-01T12:01:37.743Z,42.79
2019-06-01T12:02:37.484Z,42.61
2019-06-01T12:03:37.666Z,42.52
2019-06-01T12:04:37.861Z,43.09
2019-06-01T12:05:37.877Z,42.40
2019-06-01T12:06:37.793Z,43.09
2019-06-01T12:07:37.691Z,42.69
2019-06-01T12:08:38.043Z,42.38
2019-06-01T12:09:37.719Z,42.47
2019-06-01T12:10:36.881Z,43.37
2019-06-01T12:11:37.869Z,43.07
2019-06-01T12:12:38.099Z,43.48
2019-06-01T12:13:38.012Z,42.97
2019-06-01T12:14:38.319Z,43.78
2019-06-01T12:15:38.277Z,43.37
2019-06-01T12:16:36.823Z,43.09
2019-06-01T12:17:36.904Z,43.38
2019-06-01T12:18:36.763Z,43.38
2019-06-01T12:19:36.795Z,43.29
2019-06-01T12:20:36.786Z,42.79
2019-06-01T12:21:37.121Z,43.70
2019-06-01T12:22:36.820Z,43.13
2019-06-01T12:23:37.346Z,44.14
2019-06-01T12:24:36.944Z,45.03
2019-06-01T12:25:38.106Z,43.92
2019-06-01T12:26:37.259Z,44.22
2019-06-01T12:27:37.312Z,44.42
2019-06-01T12:28:37.539Z,44.61
2019-06-01T12:29:37.426Z,44.39
2019-06-01T12:30:37.520Z,44.59
2019-06-01T12:31:37.674Z,44.89
2019-06-01T12:32:37.851Z,44.91
2019-06-01T12:33:37.960Z,44.81
2019-06-01T12:34:37.989Z,44.32
2019-06-01T12:35:37.816Z,44.51
2019-06-01T12:36:38.775Z,44.51
2019-06-01T12:37:55.993Z,44.81
2019-06-01T12:38:37.913Z,44.20
2019-06-01T12:39:36.631Z,44.18
2019-06-01T12:40:36.575Z,43.29
2019-06-01T12:41:36.642Z,43.07
2019-06-01T12:42:36.585Z,43.07
2019-06-01T12:43:36.675Z,42.65
2019-06-01T12:44:36.553Z,42.63
2019-06-01T12:45:36.543Z,42.83
2019-06-01T12:46:36.546Z,42.83
2019-06-01T12:47:36.524Z,41.33
2019-06-01T12:48:36.474Z,42.12
2019-06-01T12:49:36.584Z,42.44
2019-06-01T12:50:36.455Z,42.73
2019-06-01T12:51:36.494Z,42.34
2019-06-01T12:52:36.479Z,41.93